Flight Track Log - Related Links

Times and Time Zones

All times are in EDT time to prevent confusion due to time zone crossing. See the JBU1781 flight status page for this flight to view local times or setup timezone preferences in your user account.

Time Position Orientation Groundspeed Altitude Reporting Facility
EDT Latitude Longitude Course Direction KTS MPH feet Rate Location/Type
Fri 02:03:57 PM 28.4167 -81.3167 130° Southeast 158 182 800  Level Orlando TRACON
Fri 02:04:39 PM 28.3833 -81.3167 180° South 165 190 2,000 2,176 Climbing Orlando TRACON
Fri 02:05:39 PM 28.3333 -81.3167 180° South 206 237 4,500 2,628 Climbing Orlando TRACON
Fri 02:06:00 PM 27.7417 -80.5583 138° Southeast  Level FlightAware Approximate
Fri 02:06:40 PM 28.2833 -81.2833 150° Southeast 251 289 7,300  Level Orlando TRACON
Fri 02:07:00 PM 27.6909 -80.5075 138° Southeast  Level FlightAware Approximate
Fri 02:08:00 PM 27.6489 -80.4486 130° Southeast  Level FlightAware Approximate
Fri 02:08:46 PM 28.2881 -81.1050 88° East 285 328 9,300  Level Miami Center
Fri 02:09:00 PM 27.6051 -80.3901 130° Southeast  Level FlightAware Approximate
Fri 02:09:46 PM 28.3053 -81.0139 78° East 291 335 12,900  Level Miami Center
Fri 02:10:46 PM 28.3083 -80.9078 88° East 296 341 15,800 2,200 Climbing Miami Center
Fri 02:11:46 PM 28.2622 -80.8425 129° Southeast 317 365 17,300 1,200 Climbing Miami Center
Fri 02:12:46 PM 28.1878 -80.7408 130° Southeast 340 391 18,200 1,150 Climbing Miami Center
Fri 02:13:46 PM 28.1069 -80.6392 132° Southeast 395 455 19,600 1,750 Climbing Miami Center
Fri 02:14:46 PM 28.0261 -80.5331 131° Southeast 428 493 21,700 1,700 Climbing Miami Center
Fri 02:15:46 PM 27.9372 -80.4197 132° Southeast 440 506 23,000 650 Climbing Miami Center
Fri 02:16:46 PM 27.8481 -80.3089 132° Southeast 461 531 23,000  Level Miami Center
Fri 02:17:46 PM 27.7628 -80.2056 133° Southeast 461 531 23,000  Level Miami Center
Fri 02:18:46 PM 27.6775 -80.0953 131° Southeast 461 531 23,000  Level Miami Center
Fri 02:19:46 PM 27.5944 -79.9897 132° Southeast 461 531 23,000  Level Miami Center
Fri 02:20:46 PM 27.5089 -79.8819 132° Southeast 461 531 23,000  Level Miami Center
Fri 02:21:46 PM 27.4336 -79.7842 131° Southeast 454 522 23,000  Level Miami Center
Fri 02:22:46 PM 27.3442 -79.6603 129° Southeast 454 522 23,000  Level Miami Center
Fri 02:23:46 PM 27.2606 -79.5531 131° Southeast 454 522 23,000  Level Miami Center
Fri 02:24:46 PM 27.1792 -79.4439 130° Southeast 460 529 23,000  Level Miami Center
Fri 02:25:46 PM 27.1058 -79.3419 129° Southeast 460 529 23,000  Level Miami Center
Fri 02:26:46 PM 27.0139 -79.2208 130° Southeast 467 537 23,000  Level Miami Center
Fri 02:27:46 PM 26.9403 -79.1217 130° Southeast 462 532 23,000  Level Miami Center
Fri 02:28:46 PM 26.8542 -79.0128 132° Southeast 468 539 23,000  Level Miami Center
Fri 02:29:46 PM 26.7681 -78.8994 130° Southeast 468 539 23,000  Level Miami Center
Fri 02:30:46 PM 26.6900 -78.7936 130° Southeast 461 531 23,000  Level Miami Center
Fri 02:31:46 PM 26.6142 -78.6878 129° Southeast 456 525 23,000  Level Miami Center
Fri 02:32:46 PM 26.5214 -78.5817 134° Southeast 456 525 23,000  Level Miami Center
Fri 02:33:46 PM 26.4369 -78.4739 131° Southeast 457 526 23,000  Level Miami Center
Fri 02:34:46 PM 26.3525 -78.3592 129° Southeast 463 533 23,000  Level Miami Center
Fri 02:35:46 PM 26.2700 -78.2492 130° Southeast 463 533 23,000  Level Miami Center
Fri 02:36:46 PM 26.1875 -78.1369 129° Southeast 463 533 23,000 -450 Level Miami Center
Fri 02:37:46 PM 26.1028 -78.0272 131° Southeast 463 533 22,100 -950 Descending Miami Center
Fri 02:38:46 PM 26.0200 -77.9203 131° Southeast 463 533 21,100 -1,350 Descending Miami Center
Fri 02:39:46 PM 25.9392 -77.8131 130° Southeast 463 533 19,400 -1,850 Descending Miami Center
Fri 02:40:46 PM 25.8606 -77.7108 131° Southeast 457 526 17,400 -1,800 Descending Miami Center
Fri 02:41:46 PM 25.7878 -77.6203 132° Southeast 426 490 15,800 -1,650 Descending Miami Center
Fri 02:42:46 PM 25.7150 -77.5483 138° Southeast 394 453 14,100 -1,650 Descending Miami Center
Fri 02:43:46 PM 25.6294 -77.5481 180° South 305 351 12,500 -1,650 Descending Miami Center
Fri 02:44:46 PM 25.5458 -77.5519 182° South 300 345 10,800 -1,650 Descending Miami Center
Fri 02:45:46 PM 25.4622 -77.5517 180° South 300 345 9,200 -1,600 Descending Miami Center
Fri 02:46:46 PM 25.3828 -77.5533 181° South 294 338 7,600 -1,600 Descending Miami Center

Login

Don't have an account? Register now (free) for customized features, flight alerts, and more!